Time;durP1;ratioP1;P1;durP2;ratioP2;P2;SDS_P1;SDS_P2;PMS_P1;PMS_P2;Temp;Humidity;BMP_temperature;BMP_pressure;BME280_temperature;BME280_humidity;BME280_pressure;Samples;Min_cycle;Max_cycle;Signal;HPM_P1;HPM_P2
2020/12/12 00:01:34;;;;;;;7.47;1.60;;;9.30;99.90;;;;;;5067339;28;20730;-75
2020/12/12 00:04:00;;;;;;;11.23;1.90;;;9.30;99.90;;;;;;5051900;28;20231;-75
2020/12/12 00:06:26;;;;;;;9.10;1.57;;;9.20;99.90;;;;;;5065201;28;20292;-76
2020/12/12 00:08:53;;;;;;;9.13;1.63;;;9.20;99.90;;;;;;5067793;28;20196;-75
2020/12/12 00:11:21;;;;;;;9.07;1.80;;;9.20;99.90;;;;;;5053267;28;20235;-76
2020/12/12 00:13:48;;;;;;;6.37;1.50;;;9.20;99.90;;;;;;5051568;28;20269;-76
2020/12/12 00:16:15;;;;;;;8.93;1.53;;;9.30;99.90;;;;;;5061783;28;20338;-75
2020/12/12 00:18:42;;;;;;;11.13;1.83;;;9.30;99.90;;;;;;5068099;28;20613;-75
2020/12/12 00:21:08;;;;;;;8.47;1.60;;;9.30;99.90;;;;;;5071958;28;20231;-75
2020/12/12 00:23:37;;;;;;;8.10;1.40;;;9.30;99.90;;;;;;5054606;28;20660;-75
2020/12/12 00:26:03;;;;;;;10.23;1.80;;;9.30;99.90;;;;;;5062817;28;20227;-75
2020/12/12 00:28:32;;;;;;;8.07;1.80;;;9.30;99.90;;;;;;5073617;28;20271;-75
2020/12/12 00:30:58;;;;;;;7.73;1.57;;;9.30;99.90;;;;;;5067972;28;20666;-76
2020/12/12 00:33:25;;;;;;;5.57;1.37;;;9.30;99.90;;;;;;5070560;28;20222;-75
2020/12/12 00:35:51;;;;;;;6.00;1.47;;;9.30;99.90;;;;;;5056501;28;20703;-75
2020/12/12 00:38:18;;;;;;;8.37;1.50;;;9.30;99.90;;;;;;5058223;28;20235;-76
2020/12/12 00:40:44;;;;;;;9.33;1.60;;;9.20;99.90;;;;;;5071519;28;20231;-75
2020/12/12 00:43:11;;;;;;;8.57;1.80;;;9.30;99.90;;;;;;5054383;28;20227;-75
2020/12/12 00:45:38;;;;;;;11.03;2.33;;;9.30;99.90;;;;;;5057628;28;20230;-75
2020/12/12 00:48:04;;;;;;;11.30;1.97;;;9.30;99.90;;;;;;5061753;28;20243;-75
2020/12/12 00:50:31;;;;;;;7.33;1.50;;;9.30;99.90;;;;;;5057740;28;20237;-75
2020/12/12 00:52:57;;;;;;;10.87;1.80;;;9.30;99.90;;;;;;5056130;28;20262;-75
2020/12/12 00:55:23;;;;;;;10.90;1.77;;;9.30;99.90;;;;;;5070136;28;20233;-75
2020/12/12 00:57:50;;;;;;;9.40;1.83;;;9.30;99.90;;;;;;5070901;28;20231;-75
2020/12/12 01:00:16;;;;;;;7.33;1.53;;;9.30;99.90;;;;;;5069777;28;20237;-76
2020/12/12 01:02:43;;;;;;;8.00;1.70;;;9.30;99.90;;;;;;5056484;28;20233;-75
2020/12/12 01:05:10;;;;;;;12.07;2.20;;;9.30;99.90;;;;;;5067455;28;20675;-75
2020/12/12 01:07:36;;;;;;;13.67;2.37;;;9.30;99.90;;;;;;5061075;28;20287;-75
2020/12/12 01:10:03;;;;;;;14.23;1.90;;;9.30;99.90;;;;;;5069907;28;20632;-75
2020/12/12 01:12:29;;;;;;;8.33;1.50;;;9.20;99.90;;;;;;5059391;28;20276;-75
2020/12/12 01:14:56;;;;;;;8.37;1.83;;;9.20;99.90;;;;;;5067271;28;20228;-75
2020/12/12 01:17:22;;;;;;;10.33;1.57;;;9.20;99.90;;;;;;5068141;28;20632;-75
2020/12/12 01:19:49;;;;;;;10.13;1.50;;;9.20;99.90;;;;;;5063111;28;20222;-75
2020/12/12 01:22:16;;;;;;;11.17;1.47;;;9.20;99.90;;;;;;5068855;28;20260;-75
2020/12/12 01:24:42;;;;;;;7.47;1.67;;;9.20;99.90;;;;;;5074366;28;20659;-75
2020/12/12 01:27:09;;;;;;;6.00;1.30;;;9.20;99.90;;;;;;5055561;28;20310;-75
2020/12/12 01:29:35;;;;;;;7.87;1.40;;;9.20;99.90;;;;;;5058175;28;20218;-75
2020/12/12 01:32:01;;;;;;;10.50;1.60;;;9.30;99.90;;;;;;5074281;28;20673;-75
2020/12/12 01:34:28;;;;;;;9.33;1.50;;;9.30;99.90;;;;;;5074461;28;20237;-75
2020/12/12 01:36:55;;;;;;;5.60;1.30;;;9.30;99.90;;;;;;5071431;28;20230;-75
2020/12/12 01:39:21;;;;;;;9.87;1.40;;;9.30;99.90;;;;;;5071132;28;20237;-76
2020/12/12 01:41:48;;;;;;;6.40;1.13;;;9.30;99.90;;;;;;5060074;28;20232;-75
2020/12/12 01:44:16;;;;;;;9.53;1.63;;;9.30;99.90;;;;;;5073671;28;20236;-75
2020/12/12 01:46:43;;;;;;;5.23;1.00;;;9.30;99.90;;;;;;5065629;28;20234;-75
2020/12/12 01:49:09;;;;;;;5.63;1.13;;;9.30;99.90;;;;;;5069617;28;20196;-75
2020/12/12 01:51:36;;;;;;;7.30;1.43;;;9.30;99.90;;;;;;5065569;28;20279;-75
2020/12/12 01:54:05;;;;;;;7.50;1.83;;;9.30;99.90;;;;;;5073982;28;20307;-75
2020/12/12 01:56:32;;;;;;;10.10;1.50;;;9.30;99.90;;;;;;5074071;28;20249;-75
2020/12/12 01:58:58;;;;;;;9.20;1.50;;;9.40;99.90;;;;;;5074580;28;20231;-76
2020/12/12 02:01:28;;;;;;;8.80;1.67;;;9.40;99.90;;;;;;5062569;28;20546;-74
2020/12/12 02:03:56;;;;;;;7.30;1.30;;;9.40;99.90;;;;;;5071551;28;20627;-76
2020/12/12 02:06:23;;;;;;;6.90;1.17;;;9.40;99.90;;;;;;5063550;28;20715;-75
2020/12/12 02:08:52;;;;;;;6.37;1.50;;;9.40;99.90;;;;;;5066648;28;20231;-75
2020/12/12 02:11:20;;;;;;;11.00;1.53;;;9.30;99.90;;;;;;5063010;28;20296;-75
2020/12/12 02:13:48;;;;;;;7.80;1.23;;;9.30;99.90;;;;;;5063875;28;20265;-74
2020/12/12 02:16:15;;;;;;;8.23;1.30;;;9.40;99.90;;;;;;5072966;28;20249;-75
2020/12/12 02:18:41;;;;;;;5.37;1.17;;;9.40;99.90;;;;;;5071715;28;20231;-75
2020/12/12 02:21:08;;;;;;;7.83;1.30;;;9.40;99.90;;;;;;5071938;28;20304;-75
2020/12/12 02:23:37;;;;;;;5.07;1.10;;;9.40;99.90;;;;;;5068542;28;20225;-75
2020/12/12 02:26:04;;;;;;;5.93;0.80;;;9.40;99.90;;;;;;5072120;28;20257;-75
2020/12/12 02:28:35;;;;;;;9.23;1.10;;;9.40;99.90;;;;;;5073234;28;20285;-76
2020/12/12 02:31:02;;;;;;;5.17;0.80;;;9.50;99.90;;;;;;5070483;28;20219;-75
2020/12/12 02:33:28;;;;;;;6.13;1.00;;;9.40;99.90;;;;;;5071062;28;20248;-76
2020/12/12 02:35:56;;;;;;;6.10;1.10;;;9.50;99.90;;;;;;5065423;28;20345;-75
2020/12/12 02:38:23;;;;;;;5.97;1.10;;;9.40;99.90;;;;;;5061157;28;20196;-75
2020/12/12 02:40:50;;;;;;;6.23;1.20;;;9.40;99.90;;;;;;5058075;28;20230;-75
2020/12/12 02:43:18;;;;;;;6.43;1.07;;;9.40;99.90;;;;;;5063438;28;20238;-75
2020/12/12 02:45:46;;;;;;;7.83;1.20;;;9.40;99.90;;;;;;5071413;28;20204;-75
2020/12/12 02:48:13;;;;;;;7.17;0.90;;;9.40;99.90;;;;;;5059230;28;20299;-76
2020/12/12 02:50:40;;;;;;;2.70;0.77;;;9.40;99.90;;;;;;5070223;28;20207;-75
2020/12/12 02:53:06;;;;;;;6.10;1.13;;;9.40;99.90;;;;;;5071932;28;20649;-75
2020/12/12 02:55:33;;;;;;;5.13;1.13;;;9.40;99.90;;;;;;5063150;28;20267;-75
2020/12/12 02:58:00;;;;;;;6.13;0.90;;;9.40;99.90;;;;;;5073829;28;20238;-75
2020/12/12 03:00:27;;;;;;;4.07;1.10;;;9.30;99.90;;;;;;5073103;28;20230;-75
2020/12/12 03:02:54;;;;;;;4.20;1.10;;;9.30;99.90;;;;;;5067165;28;20223;-75
2020/12/12 03:05:20;;;;;;;4.53;0.93;;;9.30;99.90;;;;;;5061044;28;20239;-76
2020/12/12 03:07:47;;;;;;;4.50;0.77;;;9.30;99.90;;;;;;5072405;28;20203;-75
2020/12/12 03:10:13;;;;;;;4.90;0.90;;;9.30;99.90;;;;;;5073525;28;20212;-75
2020/12/12 03:12:40;;;;;;;3.80;0.73;;;9.20;99.90;;;;;;5073279;28;20260;-75
2020/12/12 03:15:09;;;;;;;7.23;1.30;;;9.20;99.90;;;;;;5064128;28;20638;-76
2020/12/12 03:17:35;;;;;;;4.80;0.93;;;9.20;99.90;;;;;;5059763;28;20235;-76
2020/12/12 03:20:03;;;;;;;3.47;0.90;;;9.20;99.90;;;;;;5070929;28;20239;-75
2020/12/12 03:22:30;;;;;;;6.87;1.00;;;9.20;99.90;;;;;;5060548;28;20248;-76
2020/12/12 03:24:57;;;;;;;5.73;1.10;;;9.10;99.90;;;;;;5071553;28;20249;-75
2020/12/12 03:27:23;;;;;;;5.83;0.90;;;9.10;99.90;;;;;;5071012;28;20270;-75
2020/12/12 03:29:49;;;;;;;5.27;0.90;;;9.10;99.90;;;;;;5060504;28;20637;-76
2020/12/12 03:32:17;;;;;;;4.03;0.80;;;9.10;99.90;;;;;;5072450;28;20241;-75
2020/12/12 03:34:44;;;;;;;6.07;1.13;;;9.10;99.90;;;;;;5059115;28;20227;-75
2020/12/12 03:37:12;;;;;;;5.43;0.73;;;9.10;99.90;;;;;;5051543;28;20297;-74
2020/12/12 03:39:39;;;;;;;4.87;0.80;;;9.10;99.90;;;;;;5071768;28;20196;-75
2020/12/12 03:42:06;;;;;;;5.60;0.80;;;9.10;99.90;;;;;;5072430;28;20247;-75
2020/12/12 03:44:33;;;;;;;4.93;0.90;;;9.10;99.90;;;;;;5072845;28;20197;-74
2020/12/12 03:46:59;;;;;;;4.53;0.80;;;9.00;99.90;;;;;;5071455;28;20247;-75
2020/12/12 03:49:27;;;;;;;8.37;1.17;;;9.10;99.90;;;;;;5070351;28;20237;-75
2020/12/12 03:51:53;;;;;;;7.03;1.00;;;9.00;99.90;;;;;;5072565;28;20230;-75
2020/12/12 03:54:19;;;;;;;6.33;1.00;;;9.00;99.90;;;;;;5070306;28;20310;-75
2020/12/12 03:56:46;;;;;;;6.07;0.90;;;9.00;99.90;;;;;;5069936;28;20288;-75
2020/12/12 03:59:12;;;;;;;10.60;1.20;;;9.00;99.90;;;;;;5057558;28;20632;-76
2020/12/12 04:01:39;;;;;;;7.60;1.67;;;9.00;99.90;;;;;;5071216;28;20231;-75
2020/12/12 04:04:05;;;;;;;6.37;1.20;;;9.00;99.90;;;;;;5072481;28;20629;-75
2020/12/12 04:06:33;;;;;;;5.70;1.43;;;9.00;99.90;;;;;;5072294;28;20200;-75
2020/12/12 04:08:59;;;;;;;5.07;0.80;;;9.00;99.90;;;;;;5071790;28;20230;-75
2020/12/12 04:11:26;;;;;;;7.73;1.30;;;9.00;99.90;;;;;;5072164;28;20245;-75
2020/12/12 04:13:53;;;;;;;9.43;1.63;;;9.00;99.90;;;;;;5072133;28;20258;-76
2020/12/12 04:16:19;;;;;;;7.27;1.20;;;9.00;99.90;;;;;;5053784;28;20242;-75
2020/12/12 04:18:46;;;;;;;7.37;1.20;;;8.90;99.90;;;;;;5067694;28;20235;-75
2020/12/12 04:21:12;;;;;;;8.60;1.30;;;8.90;99.90;;;;;;5052776;28;20242;-75
2020/12/12 04:23:43;;;;;;;9.20;1.37;;;8.90;99.90;;;;;;5063553;28;20726;-75
2020/12/12 04:26:12;;;;;;;9.90;1.43;;;8.90;99.90;;;;;;5067480;28;20251;-75
2020/12/12 04:28:39;;;;;;;6.13;1.10;;;8.90;99.90;;;;;;5062716;28;20236;-76
2020/12/12 04:31:06;;;;;;;6.03;1.33;;;8.90;99.90;;;;;;5066160;28;20470;-75
2020/12/12 04:33:33;;;;;;;11.53;1.60;;;8.90;99.90;;;;;;5071617;28;20260;-75
2020/12/12 04:35:59;;;;;;;5.87;0.90;;;8.90;99.90;;;;;;5062643;28;20235;-75
2020/12/12 04:38:27;;;;;;;7.30;1.20;;;8.90;99.90;;;;;;5070914;28;20243;-75
2020/12/12 04:40:56;;;;;;;7.10;1.17;;;8.90;99.90;;;;;;5071155;28;20200;-75
2020/12/12 04:43:24;;;;;;;8.80;1.60;;;8.90;99.90;;;;;;5070532;28;20202;-75
2020/12/12 04:45:51;;;;;;;7.90;1.63;;;8.90;99.90;;;;;;5051270;28;20240;-75
2020/12/12 04:48:18;;;;;;;9.27;1.57;;;8.80;99.90;;;;;;5057777;28;20249;-74
2020/12/12 04:50:45;;;;;;;12.90;1.53;;;8.80;99.90;;;;;;5071823;28;20242;-75
2020/12/12 04:53:15;;;;;;;5.37;1.10;;;8.80;99.90;;;;;;5064575;28;20251;-75
2020/12/12 04:55:45;;;;;;;8.20;1.17;;;8.80;99.90;;;;;;5065987;28;20203;-75
2020/12/12 04:58:15;;;;;;;6.30;1.17;;;8.80;99.90;;;;;;5056107;28;20199;-75
2020/12/12 05:00:45;;;;;;;7.47;1.10;;;8.80;99.90;;;;;;5063951;28;20217;-75
2020/12/12 05:03:13;;;;;;;6.23;1.43;;;8.80;99.90;;;;;;5071554;28;20199;-75
2020/12/12 05:05:40;;;;;;;11.03;1.77;;;8.80;99.90;;;;;;5071263;28;20294;-75
2020/12/12 05:08:08;;;;;;;10.20;1.20;;;8.80;99.90;;;;;;5069351;28;20235;-76
2020/12/12 05:10:39;;;;;;;9.77;1.60;;;8.80;99.90;;;;;;5071086;28;20191;-75
2020/12/12 05:13:15;;;;;;;11.03;1.40;;;8.80;99.90;;;;;;5070310;28;20655;-75
2020/12/12 05:15:42;;;;;;;6.57;1.27;;;8.80;99.90;;;;;;5070334;28;20859;-75
2020/12/12 05:18:09;;;;;;;9.00;2.20;;;8.70;99.90;;;;;;5068251;28;20254;-75
2020/12/12 05:20:37;;;;;;;8.30;1.27;;;8.70;99.90;;;;;;5071544;28;20245;-75
2020/12/12 05:23:11;;;;;;;5.00;1.23;;;8.70;99.90;;;;;;5070392;28;20227;-75
2020/12/12 05:25:38;;;;;;;8.20;1.50;;;8.70;99.90;;;;;;5071091;28;20196;-75
2020/12/12 05:28:05;;;;;;;7.93;1.60;;;8.70;99.90;;;;;;5066155;28;20281;-74
2020/12/12 05:30:34;;;;;;;9.77;1.77;;;8.60;99.90;;;;;;5070884;28;20622;-75
2020/12/12 05:33:01;;;;;;;9.77;1.43;;;8.60;99.90;;;;;;5070616;28;20231;-75
2020/12/12 05:35:28;;;;;;;8.93;1.80;;;8.50;99.90;;;;;;5054285;28;20225;-75
2020/12/12 05:37:54;;;;;;;8.20;1.20;;;8.40;99.90;;;;;;5055493;28;20282;-75
2020/12/12 05:40:21;;;;;;;10.50;1.80;;;8.30;99.90;;;;;;5070727;28;20241;-75
2020/12/12 05:42:48;;;;;;;8.47;1.30;;;8.30;99.90;;;;;;5066760;28;20251;-75
2020/12/12 05:45:16;;;;;;;7.60;1.60;;;8.20;99.90;;;;;;5051195;28;20566;-75
2020/12/12 05:47:44;;;;;;;8.37;1.60;;;8.20;99.90;;;;;;5051261;28;20200;-75
2020/12/12 05:50:11;;;;;;;7.27;1.43;;;8.20;99.90;;;;;;5051402;28;20196;-75
2020/12/12 05:52:41;;;;;;;8.57;1.50;;;8.10;99.90;;;;;;5052853;28;20203;-75
2020/12/12 05:55:08;;;;;;;7.57;1.93;;;8.10;99.90;;;;;;5070951;28;20199;-75
2020/12/12 05:57:36;;;;;;;13.90;2.53;;;8.10;99.90;;;;;;5070613;28;20272;-75
2020/12/12 06:00:04;;;;;;;9.37;1.60;;;8.10;99.90;;;;;;5071964;28;20234;-76
2020/12/12 06:02:35;;;;;;;7.07;1.70;;;8.10;99.90;;;;;;5074997;28;20246;-75
2020/12/12 06:05:05;;;;;;;12.20;1.73;;;8.10;99.90;;;;;;5074268;28;20206;-75
2020/12/12 06:07:33;;;;;;;9.63;1.77;;;8.10;99.90;;;;;;5074037;28;20195;-74
2020/12/12 06:10:01;;;;;;;10.83;1.87;;;8.10;99.90;;;;;;5074382;28;20231;-75
2020/12/12 06:12:28;;;;;;;8.43;2.03;;;8.10;99.90;;;;;;5072669;28;20374;-75
2020/12/12 06:14:56;;;;;;;11.60;1.87;;;8.00;99.90;;;;;;5074653;28;20310;-75
2020/12/12 06:17:37;;;;;;;10.57;1.60;;;7.90;99.90;;;;;;5072674;28;20237;-75
2020/12/12 06:20:05;;;;;;;10.93;1.70;;;7.90;99.90;;;;;;5064701;28;20669;-75
2020/12/12 06:22:33;;;;;;;12.27;1.83;;;7.90;99.90;;;;;;5073822;28;20839;-76
2020/12/12 06:25:01;;;;;;;9.77;2.00;;;7.80;99.90;;;;;;5072303;28;20249;-75
2020/12/12 06:27:37;;;;;;;13.83;2.20;;;7.80;99.90;;;;;;5057978;28;20254;-75
2020/12/12 06:30:11;;;;;;;9.87;2.20;;;7.70;99.90;;;;;;5074715;28;20530;-75
2020/12/12 06:32:38;;;;;;;9.83;1.70;;;7.70;99.90;;;;;;5074085;28;20682;-75
2020/12/12 06:35:06;;;;;;;12.57;1.97;;;7.70;99.90;;;;;;5074358;28;20223;-75
2020/12/12 06:37:33;;;;;;;8.83;1.70;;;7.70;99.90;;;;;;5073327;28;20243;-75
2020/12/12 06:40:01;;;;;;;7.73;1.70;;;7.70;99.90;;;;;;5058901;28;20239;-75
2020/12/12 06:42:33;;;;;;;10.30;1.97;;;7.70;99.90;;;;;;5053858;28;20207;-75
2020/12/12 06:45:01;;;;;;;8.00;2.07;;;7.70;99.90;;;;;;5053953;28;20228;-74
2020/12/12 06:47:40;;;;;;;9.93;1.87;;;7.70;99.90;;;;;;5053942;28;20207;-75
2020/12/12 06:50:11;;;;;;;10.70;2.27;;;7.70;99.90;;;;;;5054090;28;20198;-75
2020/12/12 06:52:37;;;;;;;9.03;1.90;;;7.60;99.90;;;;;;5055524;28;20264;-75
2020/12/12 06:55:06;;;;;;;10.77;1.90;;;7.70;99.90;;;;;;5061705;28;20781;-75
2020/12/12 06:57:36;;;;;;;7.60;1.80;;;7.60;99.90;;;;;;5053567;28;20242;-74
2020/12/12 07:00:05;;;;;;;13.97;2.17;;;7.50;99.90;;;;;;5054419;28;20257;-74
2020/12/12 07:02:32;;;;;;;10.13;2.00;;;7.40;99.90;;;;;;5063755;28;20218;-75
2020/12/12 07:05:20;;;;;;;9.60;2.00;;;7.40;99.90;;;;;;5073696;28;20230;-75
2020/12/12 07:07:47;;;;;;;9.50;2.17;;;7.30;99.90;;;;;;5072516;28;20239;-74
2020/12/12 07:10:13;;;;;;;7.17;1.60;;;7.30;99.90;;;;;;5058217;28;20232;-75
2020/12/12 07:12:40;;;;;;;5.80;1.90;;;7.30;99.90;;;;;;5070958;28;20218;-74
2020/12/12 07:15:07;;;;;;;7.13;1.30;;;7.30;99.90;;;;;;5073771;28;20276;-74
2020/12/12 07:17:34;;;;;;;10.80;1.53;;;7.50;99.90;;;;;;5072776;28;20702;-75
2020/12/12 07:20:01;;;;;;;8.10;1.60;;;7.60;99.90;;;;;;5073367;28;20239;-74
2020/12/12 07:22:30;;;;;;;12.20;1.50;;;7.70;99.90;;;;;;5072482;28;20203;-75
2020/12/12 07:24:57;;;;;;;9.17;1.73;;;7.70;99.90;;;;;;5072469;28;20217;-75
2020/12/12 07:27:26;;;;;;;8.10;1.77;;;7.70;99.90;;;;;;5072313;28;20265;-75
2020/12/12 07:29:52;;;;;;;11.20;2.10;;;7.70;99.90;;;;;;5072740;28;20233;-74
2020/12/12 07:32:19;;;;;;;11.67;2.27;;;7.70;99.90;;;;;;5072066;28;20217;-74
2020/12/12 07:34:45;;;;;;;13.30;2.67;;;7.50;99.90;;;;;;5055398;28;20262;-74
2020/12/12 07:37:12;;;;;;;11.33;1.87;;;7.50;99.90;;;;;;5052890;28;20242;-74
2020/12/12 07:39:41;;;;;;;7.73;1.90;;;7.40;99.90;;;;;;5070762;28;20199;-75
2020/12/12 07:42:09;;;;;;;11.37;2.10;;;7.30;99.90;;;;;;5072823;28;20238;-75
2020/12/12 07:44:36;;;;;;;11.93;1.63;;;7.30;99.90;;;;;;5073214;28;20227;-74
2020/12/12 07:47:05;;;;;;;11.37;2.00;;;7.20;99.90;;;;;;5071205;28;20247;-75
2020/12/12 07:49:32;;;;;;;11.00;2.17;;;7.10;99.90;;;;;;5065667;28;20690;-74
2020/12/12 07:52:00;;;;;;;9.33;1.90;;;7.10;99.90;;;;;;5072073;28;20234;-74
2020/12/12 07:54:37;;;;;;;9.20;2.30;;;7.10;99.90;;;;;;5071750;28;20258;-74
2020/12/12 07:57:07;;;;;;;9.60;2.33;;;7.10;99.90;;;;;;5072718;28;20286;-74
2020/12/12 07:59:33;;;;;;;17.97;2.93;;;7.10;99.90;;;;;;5061527;28;20203;-74
2020/12/12 08:02:02;;;;;;;16.10;3.10;;;7.10;99.90;;;;;;5062154;28;20234;-75
2020/12/12 08:04:28;;;;;;;15.70;2.90;;;7.10;99.90;;;;;;5069710;28;20230;-74
2020/12/12 08:06:55;;;;;;;12.37;2.73;;;7.10;99.90;;;;;;5070791;28;20205;-74
2020/12/12 08:09:23;;;;;;;12.23;2.53;;;7.10;99.90;;;;;;5058253;28;20240;-75
2020/12/12 08:11:57;;;;;;;11.50;2.40;;;7.10;99.90;;;;;;5072208;28;20667;-75
2020/12/12 08:14:25;;;;;;;12.63;2.57;;;7.20;99.90;;;;;;5072201;28;20257;-74
2020/12/12 08:16:57;;;;;;;14.67;2.70;;;7.20;99.90;;;;;;5072337;28;20225;-75
2020/12/12 08:19:23;;;;;;;11.00;1.97;;;7.20;99.90;;;;;;5072185;28;20198;-75
2020/12/12 08:21:52;;;;;;;15.30;2.73;;;7.30;99.90;;;;;;5071789;28;20574;-74
2020/12/12 08:24:19;;;;;;;9.77;2.53;;;7.50;99.90;;;;;;5069113;28;20225;-73
2020/12/12 08:26:46;;;;;;;10.03;2.20;;;7.70;99.90;;;;;;5068295;28;20246;-74
2020/12/12 08:29:12;;;;;;;9.53;2.10;;;7.50;99.90;;;;;;5087961;28;20342;-75
2020/12/12 08:31:40;;;;;;;12.07;2.57;;;7.50;99.90;;;;;;5092409;28;20237;-75
2020/12/12 08:34:08;;;;;;;14.37;3.40;;;7.60;99.90;;;;;;5091702;28;20271;-74
2020/12/12 08:36:36;;;;;;;12.10;3.50;;;7.80;99.90;;;;;;5091643;28;20789;-75
2020/12/12 08:39:05;;;;;;;11.87;2.90;;;8.10;99.90;;;;;;5056123;28;20624;-75
2020/12/12 08:41:33;;;;;;;12.73;2.77;;;8.00;99.90;;;;;;5067125;28;20195;-75
2020/12/12 08:43:59;;;;;;;15.60;2.70;;;8.10;99.90;;;;;;5069581;28;20224;-75
2020/12/12 08:46:26;;;;;;;9.23;2.80;;;8.90;99.90;;;;;;5052136;28;20228;-75
2020/12/12 08:48:54;;;;;;;10.80;2.43;;;9.60;99.90;;;;;;5066975;28;20203;-75
2020/12/12 08:51:26;;;;;;;9.70;2.20;;;9.70;99.90;;;;;;5071583;28;20203;-75
2020/12/12 08:53:53;;;;;;;9.90;2.40;;;9.30;99.90;;;;;;5072137;28;20227;-75
2020/12/12 08:56:27;;;;;;;11.20;2.60;;;8.80;99.90;;;;;;5071171;28;20232;-74
2020/12/12 08:58:57;;;;;;;8.53;2.03;;;9.10;99.90;;;;;;5052154;28;20294;-74
2020/12/12 09:01:39;;;;;;;11.80;2.37;;;10.20;99.90;;;;;;5059185;28;20207;-75
2020/12/12 09:04:19;;;;;;;9.67;2.40;;;10.90;99.90;;;;;;5070358;28;20195;-75
2020/12/12 09:06:54;;;;;;;11.47;3.23;;;11.70;99.90;;;;;;5069402;28;20264;-76
2020/12/12 09:09:22;;;;;;;11.00;2.70;;;12.10;99.90;;;;;;5070504;28;20191;-76
2020/12/12 09:11:54;;;;;;;11.03;2.23;;;12.50;99.90;;;;;;5070961;28;20233;-75
2020/12/12 09:14:21;;;;;;;8.27;1.97;;;12.80;99.90;;;;;;5060856;28;20306;-76
2020/12/12 09:16:52;;;;;;;12.33;3.20;;;12.20;99.90;;;;;;5065110;28;20231;-75
2020/12/12 09:19:20;;;;;;;7.50;2.50;;;11.70;99.90;;;;;;5071130;28;20238;-75
2020/12/12 09:21:47;;;;;;;6.37;2.47;;;10.70;99.90;;;;;;5065897;28;20246;-76
2020/12/12 09:24:14;;;;;;;9.67;2.33;;;10.00;99.90;;;;;;5051655;28;20574;-75
2020/12/12 09:26:40;;;;;;;11.80;2.10;;;9.80;99.90;;;;;;5067045;28;20215;-75
2020/12/12 09:29:07;;;;;;;7.70;2.17;;;10.40;99.90;;;;;;5055473;28;20267;-75
2020/12/12 09:31:34;;;;;;;10.13;2.20;;;11.00;99.90;;;;;;5066849;28;20657;-75
2020/12/12 09:34:00;;;;;;;13.13;2.20;;;11.70;99.90;;;;;;5071565;28;20227;-76
2020/12/12 09:36:28;;;;;;;7.77;1.97;;;12.00;99.90;;;;;;5075377;28;20296;-75
2020/12/12 09:38:55;;;;;;;7.03;1.87;;;12.60;99.90;;;;;;5066508;28;20198;-75
2020/12/12 09:41:21;;;;;;;9.90;1.80;;;12.60;99.90;;;;;;5062419;28;20228;-75
2020/12/12 09:43:48;;;;;;;6.63;1.60;;;12.00;99.90;;;;;;5055123;28;20227;-75
2020/12/12 09:46:18;;;;;;;7.27;1.70;;;11.10;99.90;;;;;;5055019;28;20683;-75
2020/12/12 09:48:45;;;;;;;9.13;1.83;;;10.60;99.90;;;;;;5062330;28;20195;-75
2020/12/12 09:51:14;;;;;;;11.77;1.90;;;10.70;99.90;;;;;;5068469;28;20237;-75
2020/12/12 09:53:41;;;;;;;7.73;2.80;;;10.90;99.90;;;;;;5073300;28;20277;-76
2020/12/12 09:56:07;;;;;;;8.40;2.20;;;10.80;99.90;;;;;;5064458;28;20282;-76
2020/12/12 09:58:34;;;;;;;7.37;1.80;;;10.60;99.90;;;;;;5067827;28;20593;-75
2020/12/12 10:01:01;;;;;;;9.00;2.07;;;10.30;99.90;;;;;;5074321;28;20230;-75
2020/12/12 10:03:27;;;;;;;11.23;2.20;;;10.80;99.90;;;;;;5073363;28;20231;-75
2020/12/12 10:05:53;;;;;;;7.33;1.83;;;11.70;99.90;;;;;;5065066;28;20235;-75
2020/12/12 10:08:20;;;;;;;7.40;2.23;;;12.20;99.90;;;;;;5068114;28;20600;-75
2020/12/12 10:10:47;;;;;;;8.07;2.43;;;12.50;99.90;;;;;;5073783;28;20234;-74
2020/12/12 10:13:14;;;;;;;6.27;1.57;;;12.30;99.90;;;;;;5073998;28;20738;-75
2020/12/12 10:15:40;;;;;;;8.73;1.67;;;11.80;99.90;;;;;;5073379;28;20226;-76
2020/12/12 10:18:08;;;;;;;8.90;2.03;;;11.30;99.90;;;;;;5068042;28;20230;-76
2020/12/12 10:20:35;;;;;;;8.47;1.93;;;11.00;99.90;;;;;;5073139;28;20199;-75
2020/12/12 10:23:02;;;;;;;7.17;1.60;;;10.80;99.90;;;;;;5057896;28;20290;-75
2020/12/12 10:25:28;;;;;;;13.03;1.70;;;10.80;99.90;;;;;;5073583;28;20229;-75
2020/12/12 10:27:57;;;;;;;10.30;2.20;;;10.90;99.90;;;;;;5067849;28;20266;-75
2020/12/12 10:30:24;;;;;;;8.40;1.73;;;11.20;99.90;;;;;;5064207;28;20206;-75
2020/12/12 10:32:51;;;;;;;9.93;2.30;;;11.90;99.90;;;;;;5070146;28;20230;-76
2020/12/12 10:35:17;;;;;;;9.00;2.00;;;12.60;99.90;;;;;;5070658;28;20270;-75
2020/12/12 10:37:44;;;;;;;7.90;1.90;;;13.00;99.90;;;;;;5068602;28;20690;-75
2020/12/12 10:40:22;;;;;;;10.33;2.70;;;13.40;99.90;;;;;;5072536;28;20238;-76
2020/12/12 10:42:48;;;;;;;9.53;2.10;;;13.40;99.90;;;;;;5069964;28;20195;-75
2020/12/12 10:45:16;;;;;;;8.90;2.10;;;13.50;99.90;;;;;;5072493;28;21566;-75
2020/12/12 10:47:42;;;;;;;11.47;2.00;;;13.50;99.90;;;;;;5067019;28;20236;-75
2020/12/12 10:50:08;;;;;;;9.90;1.90;;;12.90;99.90;;;;;;5071145;28;20241;-75
2020/12/12 10:52:35;;;;;;;9.67;2.00;;;12.20;99.90;;;;;;5057554;28;20223;-75
2020/12/12 10:55:02;;;;;;;6.50;1.57;;;11.60;99.90;;;;;;5070726;28;20747;-75
2020/12/12 10:57:29;;;;;;;8.73;1.80;;;11.30;99.90;;;;;;5070484;28;20223;-75
2020/12/12 10:59:55;;;;;;;12.83;1.97;;;10.90;99.90;;;;;;5069765;28;20226;-75
2020/12/12 11:02:23;;;;;;;11.10;2.00;;;10.70;99.90;;;;;;5063471;28;20232;-75
2020/12/12 11:04:49;;;;;;;9.93;2.00;;;10.60;99.90;;;;;;5071585;28;20712;-75
2020/12/12 11:07:15;;;;;;;14.43;3.00;;;10.70;99.90;;;;;;5065183;28;20206;-76
2020/12/12 11:09:43;;;;;;;6.97;2.00;;;10.90;99.90;;;;;;5071121;28;20839;-76
2020/12/12 11:12:12;;;;;;;8.27;1.90;;;10.90;99.90;;;;;;5069637;28;20218;-76
2020/12/12 11:14:39;;;;;;;9.57;2.10;;;10.80;99.90;;;;;;5072887;28;20746;-76
2020/12/12 11:17:05;;;;;;;10.10;2.67;;;10.60;99.90;;;;;;5070470;28;20655;-75
2020/12/12 11:19:32;;;;;;;6.53;2.27;;;10.50;99.90;;;;;;5066439;28;20720;-75
2020/12/12 11:21:59;;;;;;;11.80;2.10;;;10.40;99.90;;;;;;5064971;28;20782;-75
2020/12/12 11:24:26;;;;;;;11.87;1.70;;;10.30;99.90;;;;;;5070640;28;20238;-76
2020/12/12 11:26:53;;;;;;;8.53;1.47;;;10.20;99.90;;;;;;5064637;28;20596;-75
2020/12/12 11:29:20;;;;;;;7.27;1.43;;;9.80;99.90;;;;;;5075451;28;20216;-75
2020/12/12 11:31:49;;;;;;;9.17;1.83;;;9.60;99.90;;;;;;5064350;28;20282;-75
2020/12/12 11:34:19;;;;;;;7.93;1.50;;;9.60;99.90;;;;;;5063540;28;20218;-76
2020/12/12 11:37:09;;;;;;;6.10;1.23;;;9.80;99.90;;;;;;5059960;28;20210;-75
2020/12/12 11:39:41;;;;;;;7.17;1.67;;;10.20;99.90;;;;;;5068436;28;20309;-76
2020/12/12 11:42:25;;;;;;;9.77;1.90;;;10.50;99.90;;;;;;5069288;28;20540;-75
2020/12/12 11:45:26;;;;;;;11.87;2.20;;;10.60;99.90;;;;;;5070968;28;20191;-75
2020/12/12 11:47:52;;;;;;;8.60;2.40;;;11.10;99.90;;;;;;5068364;28;20191;-76
2020/12/12 11:50:19;;;;;;;10.13;2.73;;;11.60;99.90;;;;;;5067698;28;20230;-75
2020/12/12 11:52:46;;;;;;;7.57;2.60;;;12.20;99.90;;;;;;5066949;28;20235;-75
2020/12/12 11:55:13;;;;;;;7.20;2.60;;;12.60;99.90;;;;;;5071640;28;20258;-75
2020/12/12 11:57:39;;;;;;;8.03;1.80;;;12.80;99.90;;;;;;5071467;28;20268;-75
2020/12/12 12:00:09;;;;;;;5.50;1.50;;;13.00;99.90;;;;;;5058373;28;20199;-74
2020/12/12 12:02:36;;;;;;;6.10;1.57;;;13.10;99.90;;;;;;5072502;28;20199;-75
2020/12/12 12:05:03;;;;;;;9.93;2.00;;;13.30;99.90;;;;;;5069914;28;20238;-74
2020/12/12 12:07:30;;;;;;;6.07;1.63;;;13.60;99.90;;;;;;5060447;28;20238;-75
2020/12/12 12:10:07;;;;;;;5.63;1.77;;;13.70;99.90;;;;;;5063711;28;20203;-75
2020/12/12 12:12:34;;;;;;;9.97;2.33;;;13.60;99.90;;;;;;5070928;28;20295;-75
2020/12/12 12:15:00;;;;;;;5.83;1.37;;;13.50;99.90;;;;;;5067528;28;20258;-74
2020/12/12 12:17:27;;;;;;;5.73;1.60;;;13.60;99.90;;;;;;5072463;28;20230;-75
2020/12/12 12:19:53;;;;;;;7.07;1.50;;;13.60;99.90;;;;;;5071652;28;20295;-75
2020/12/12 12:22:20;;;;;;;6.80;1.50;;;13.90;99.90;;;;;;5072169;28;20257;-75
2020/12/12 12:24:47;;;;;;;7.47;1.80;;;13.90;99.90;;;;;;5061785;28;20242;-75
2020/12/12 12:27:14;;;;;;;6.90;1.47;;;13.60;99.90;;;;;;5051701;28;20254;-74
2020/12/12 12:29:41;;;;;;;11.50;1.70;;;13.60;99.90;;;;;;5064036;28;20227;-75
2020/12/12 12:32:07;;;;;;;7.33;1.50;;;13.60;99.90;;;;;;5073113;28;20234;-74
2020/12/12 12:34:33;;;;;;;7.80;1.40;;;14.00;99.90;;;;;;5070226;28;20337;-75
2020/12/12 12:37:00;;;;;;;8.63;1.60;;;13.90;99.90;;;;;;5069064;28;20292;-75
2020/12/12 12:39:26;;;;;;;7.53;1.60;;;13.70;99.90;;;;;;5067809;28;20239;-75
2020/12/12 12:41:53;;;;;;;10.13;1.50;;;13.70;99.90;;;;;;5067212;28;20282;-75
2020/12/12 12:44:20;;;;;;;7.20;1.33;;;13.70;99.90;;;;;;5066535;28;20234;-75
2020/12/12 12:46:49;;;;;;;11.17;1.43;;;13.80;99.90;;;;;;5067813;28;20249;-74
2020/12/12 12:49:16;;;;;;;8.17;1.57;;;13.90;99.90;;;;;;5070519;28;20195;-75
2020/12/12 12:51:42;;;;;;;6.53;1.20;;;14.20;99.90;;;;;;5069577;28;20227;-75
2020/12/12 12:54:09;;;;;;;7.40;1.23;;;13.70;99.90;;;;;;5067313;28;20270;-75